sensor_id;sensor_type;location;lat;lon;timestamp;pressure;altitude;pressure_sealevel;temperature;humidity
72525;BME280;60547;48.502;8.996;2022-08-04T00:00:28;97725.16;;;21.40;64.40
72525;BME280;60547;48.502;8.996;2022-08-04T00:03:17;97725.94;;;21.57;63.50
72525;BME280;60547;48.502;8.996;2022-08-04T00:06:02;97718.97;;;21.64;62.72
72525;BME280;60547;48.502;8.996;2022-08-04T00:08:46;97719.25;;;21.60;62.48
72525;BME280;60547;48.502;8.996;2022-08-04T00:11:23;97722.34;;;21.51;62.31
72525;BME280;60547;48.502;8.996;2022-08-04T00:16:28;97717.19;;;21.38;63.25
72525;BME280;60547;48.502;8.996;2022-08-04T00:19:02;97717.19;;;21.33;63.73
72525;BME280;60547;48.502;8.996;2022-08-04T00:21:30;97717.16;;;21.10;64.90
72525;BME280;60547;48.502;8.996;2022-08-04T00:24:01;97714.81;;;21.09;64.39
72525;BME280;60547;48.502;8.996;2022-08-04T00:26:27;97728.72;;;21.07;65.09
72525;BME280;60547;48.502;8.996;2022-08-04T00:28:52;97725.38;;;21.03;65.13
72525;BME280;60547;48.502;8.996;2022-08-04T00:31:18;97725.63;;;21.05;64.51
72525;BME280;60547;48.502;8.996;2022-08-04T00:33:45;97729.47;;;20.96;65.28
72525;BME280;60547;48.502;8.996;2022-08-04T00:36:11;97728.19;;;20.91;65.17
72525;BME280;60547;48.502;8.996;2022-08-04T00:38:41;97731.75;;;20.86;65.31
72525;BME280;60547;48.502;8.996;2022-08-04T00:44:08;97734.09;;;20.88;65.65
72525;BME280;60547;48.502;8.996;2022-08-04T00:52:12;97725.59;;;20.82;65.85
72525;BME280;60547;48.502;8.996;2022-08-04T00:55:04;97736.09;;;20.76;66.29
72525;BME280;60547;48.502;8.996;2022-08-04T01:00:13;97720.91;;;20.62;66.69
72525;BME280;60547;48.502;8.996;2022-08-04T01:16:16;97715.44;;;20.48;67.61
72525;BME280;60547;48.502;8.996;2022-08-04T01:18:59;97711.56;;;20.40;67.64
72525;BME280;60547;48.502;8.996;2022-08-04T01:26:52;97714.06;;;20.32;68.16
72525;BME280;60547;48.502;8.996;2022-08-04T01:29:21;97713.81;;;20.30;68.13
72525;BME280;60547;48.502;8.996;2022-08-04T01:32:03;97722.03;;;20.28;68.16
72525;BME280;60547;48.502;8.996;2022-08-04T01:34:35;97715.81;;;20.18;68.21
72525;BME280;60547;48.502;8.996;2022-08-04T01:40:07;97723.81;;;20.25;67.73
72525;BME280;60547;48.502;8.996;2022-08-04T01:42:35;97717.63;;;20.21;67.85
72525;BME280;60547;48.502;8.996;2022-08-04T01:45:04;97724.81;;;20.22;67.61
72525;BME280;60547;48.502;8.996;2022-08-04T01:47:34;97712.44;;;20.14;67.55
72525;BME280;60547;48.502;8.996;2022-08-04T01:50:08;97724.22;;;20.07;67.89
72525;BME280;60547;48.502;8.996;2022-08-04T01:52:36;97721.19;;;20.16;66.98
72525;BME280;60547;48.502;8.996;2022-08-04T01:55:05;97711.44;;;20.17;66.47
72525;BME280;60547;48.502;8.996;2022-08-04T01:57:32;97709.88;;;20.16;66.16
72525;BME280;60547;48.502;8.996;2022-08-04T02:00:02;97711.91;;;20.10;66.63
72525;BME280;60547;48.502;8.996;2022-08-04T02:02:28;97705.91;;;19.91;67.42
72525;BME280;60547;48.502;8.996;2022-08-04T02:04:54;97716.97;;;19.95;66.98
72525;BME280;60547;48.502;8.996;2022-08-04T02:20:33;97711.69;;;19.71;67.28
72525;BME280;60547;48.502;8.996;2022-08-04T02:23:09;97706.78;;;19.66;67.22
72525;BME280;60547;48.502;8.996;2022-08-04T02:25:56;97702.91;;;19.63;67.69
72525;BME280;60547;48.502;8.996;2022-08-04T02:28:37;97707.00;;;19.62;68.30
72525;BME280;60547;48.502;8.996;2022-08-04T02:31:12;97706.00;;;19.65;68.11
72525;BME280;60547;48.502;8.996;2022-08-04T02:33:45;97704.22;;;19.68;68.22
72525;BME280;60547;48.502;8.996;2022-08-04T02:36:20;97694.34;;;19.52;67.88
72525;BME280;60547;48.502;8.996;2022-08-04T02:38:59;97703.09;;;19.54;68.74
72525;BME280;60547;48.502;8.996;2022-08-04T02:41:27;97690.97;;;19.48;68.43
72525;BME280;60547;48.502;8.996;2022-08-04T02:44:02;97703.47;;;19.42;68.92
72525;BME280;60547;48.502;8.996;2022-08-04T02:46:29;97698.53;;;19.31;69.50
72525;BME280;60547;48.502;8.996;2022-08-04T02:48:55;97709.34;;;19.38;69.24
72525;BME280;60547;48.502;8.996;2022-08-04T02:51:24;97698.84;;;19.39;68.64
72525;BME280;60547;48.502;8.996;2022-08-04T02:53:53;97699.38;;;19.43;68.91
72525;BME280;60547;48.502;8.996;2022-08-04T02:56:21;97702.72;;;19.41;68.91
72525;BME280;60547;48.502;8.996;2022-08-04T02:58:58;97694.75;;;19.40;68.46
72525;BME280;60547;48.502;8.996;2022-08-04T03:01:24;97696.06;;;19.44;68.66
72525;BME280;60547;48.502;8.996;2022-08-04T03:11:41;97693.34;;;19.24;68.88
72525;BME280;60547;48.502;8.996;2022-08-04T03:20:03;97702.97;;;19.12;69.86
72525;BME280;60547;48.502;8.996;2022-08-04T03:31:20;97711.50;;;18.91;70.64
72525;BME280;60547;48.502;8.996;2022-08-04T03:39:29;97712.22;;;18.86;71.02
72525;BME280;60547;48.502;8.996;2022-08-04T03:42:18;97705.59;;;18.89;70.71
72525;BME280;60547;48.502;8.996;2022-08-04T03:45:06;97714.81;;;18.90;70.80
72525;BME280;60547;48.502;8.996;2022-08-04T03:48:18;97718.69;;;18.92;71.07
72525;BME280;60547;48.502;8.996;2022-08-04T03:54:15;97719.25;;;18.96;71.42
72525;BME280;60547;48.502;8.996;2022-08-04T03:57:01;97711.72;;;18.62;72.37
72525;BME280;60547;48.502;8.996;2022-08-04T04:16:42;97714.94;;;18.55;73.05
72525;BME280;60547;48.502;8.996;2022-08-04T04:22:25;97703.16;;;18.56;73.36
72525;BME280;60547;48.502;8.996;2022-08-04T04:35:32;97718.03;;;18.57;72.99
72525;BME280;60547;48.502;8.996;2022-08-04T04:38:14;97719.09;;;18.59;73.00
72525;BME280;60547;48.502;8.996;2022-08-04T04:44:28;97723.00;;;18.62;72.02
72525;BME280;60547;48.502;8.996;2022-08-04T04:53:26;97730.00;;;18.52;72.05
72525;BME280;60547;48.502;8.996;2022-08-04T04:56:22;97730.56;;;18.56;71.67
72525;BME280;60547;48.502;8.996;2022-08-04T04:58:51;97737.38;;;18.64;71.63
72525;BME280;60547;48.502;8.996;2022-08-04T05:04:09;97735.81;;;18.63;72.70
72525;BME280;60547;48.502;8.996;2022-08-04T05:09:54;97731.22;;;18.65;72.33
72525;BME280;60547;48.502;8.996;2022-08-04T05:12:41;97735.38;;;18.70;72.49
72525;BME280;60547;48.502;8.996;2022-08-04T05:15:16;97723.16;;;18.79;71.19
72525;BME280;60547;48.502;8.996;2022-08-04T05:17:48;97733.00;;;18.89;71.82
72525;BME280;60547;48.502;8.996;2022-08-04T05:20:21;97729.53;;;18.99;71.50
72525;BME280;60547;48.502;8.996;2022-08-04T05:22:58;97727.53;;;19.06;71.64
72525;BME280;60547;48.502;8.996;2022-08-04T05:28:17;97740.53;;;18.97;71.06
72525;BME280;60547;48.502;8.996;2022-08-04T05:30:47;97734.63;;;18.95;71.15
72525;BME280;60547;48.502;8.996;2022-08-04T05:33:19;97735.19;;;18.99;70.90
72525;BME280;60547;48.502;8.996;2022-08-04T05:35:49;97732.91;;;19.03;70.39
72525;BME280;60547;48.502;8.996;2022-08-04T05:38:21;97741.69;;;19.11;70.11
72525;BME280;60547;48.502;8.996;2022-08-04T05:40:48;97737.38;;;19.16;70.05
72525;BME280;60547;48.502;8.996;2022-08-04T05:43:15;97720.47;;;19.16;69.14
72525;BME280;60547;48.502;8.996;2022-08-04T05:45:41;97738.03;;;19.31;69.64
72525;BME280;60547;48.502;8.996;2022-08-04T05:48:08;97737.59;;;19.38;69.48
72525;BME280;60547;48.502;8.996;2022-08-04T05:50:34;97733.03;;;19.46;68.86
72525;BME280;60547;48.502;8.996;2022-08-04T05:53:00;97725.56;;;19.43;69.06
72525;BME280;60547;48.502;8.996;2022-08-04T05:55:28;97735.50;;;19.64;68.38
72525;BME280;60547;48.502;8.996;2022-08-04T05:57:54;97738.88;;;19.68;68.15
72525;BME280;60547;48.502;8.996;2022-08-04T06:00:21;97745.09;;;19.78;68.41
72525;BME280;60547;48.502;8.996;2022-08-04T06:02:50;97741.56;;;19.89;67.73
72525;BME280;60547;48.502;8.996;2022-08-04T06:05:17;97747.25;;;19.94;67.93
72525;BME280;60547;48.502;8.996;2022-08-04T06:07:43;97740.44;;;20.12;66.68
72525;BME280;60547;48.502;8.996;2022-08-04T06:10:09;97740.44;;;20.66;65.73
72525;BME280;60547;48.502;8.996;2022-08-04T06:12:43;97738.03;;;21.24;63.85
72525;BME280;60547;48.502;8.996;2022-08-04T06:15:11;97738.28;;;21.71;62.94
72525;BME280;60547;48.502;8.996;2022-08-04T06:17:46;97741.06;;;22.15;60.84
72525;BME280;60547;48.502;8.996;2022-08-04T06:20:13;97735.25;;;22.60;59.28
72525;BME280;60547;48.502;8.996;2022-08-04T06:22:41;97738.78;;;22.83;57.51
72525;BME280;60547;48.502;8.996;2022-08-04T06:25:09;97725.63;;;22.74;57.16
72525;BME280;60547;48.502;8.996;2022-08-04T06:27:36;97730.00;;;22.75;57.10
72525;BME280;60547;48.502;8.996;2022-08-04T06:30:03;97724.25;;;22.98;56.80
72525;BME280;60547;48.502;8.996;2022-08-04T06:32:33;97734.63;;;23.25;55.78
72525;BME280;60547;48.502;8.996;2022-08-04T06:35:15;97724.56;;;23.24;55.21
72525;BME280;60547;48.502;8.996;2022-08-04T06:37:42;97738.25;;;23.26;55.24
72525;BME280;60547;48.502;8.996;2022-08-04T06:40:13;97726.69;;;23.18;55.80
72525;BME280;60547;48.502;8.996;2022-08-04T06:42:40;97736.53;;;23.47;55.24
72525;BME280;60547;48.502;8.996;2022-08-04T06:45:06;97730.47;;;23.32;54.85
72525;BME280;60547;48.502;8.996;2022-08-04T06:47:34;97730.09;;;23.46;55.24
72525;BME280;60547;48.502;8.996;2022-08-04T06:50:04;97731.81;;;23.61;54.41
72525;BME280;60547;48.502;8.996;2022-08-04T06:52:30;97728.16;;;23.30;55.51
72525;BME280;60547;48.502;8.996;2022-08-04T06:54:55;97721.31;;;23.44;55.21
72525;BME280;60547;48.502;8.996;2022-08-04T06:57:25;97728.31;;;23.43;55.02
72525;BME280;60547;48.502;8.996;2022-08-04T06:59:58;97736.25;;;23.50;55.12
72525;BME280;60547;48.502;8.996;2022-08-04T07:02:26;97731.03;;;23.60;54.83
72525;BME280;60547;48.502;8.996;2022-08-04T07:04:53;97718.09;;;23.65;54.09
72525;BME280;60547;48.502;8.996;2022-08-04T07:07:19;97736.56;;;23.77;52.33
72525;BME280;60547;48.502;8.996;2022-08-04T07:09:44;97729.81;;;23.80;53.20
72525;BME280;60547;48.502;8.996;2022-08-04T07:12:10;97725.34;;;23.90;52.42
72525;BME280;60547;48.502;8.996;2022-08-04T07:14:38;97729.91;;;23.99;52.82
72525;BME280;60547;48.502;8.996;2022-08-04T07:17:05;97722.38;;;24.01;52.34
72525;BME280;60547;48.502;8.996;2022-08-04T07:19:32;97722.38;;;24.01;51.93
72525;BME280;60547;48.502;8.996;2022-08-04T07:22:02;97725.75;;;24.00;52.09
72525;BME280;60547;48.502;8.996;2022-08-04T07:24:32;97730.91;;;24.01;51.50
72525;BME280;60547;48.502;8.996;2022-08-04T07:26:58;97718.53;;;23.99;51.95
72525;BME280;60547;48.502;8.996;2022-08-04T07:29:24;97718.72;;;24.06;52.54
72525;BME280;60547;48.502;8.996;2022-08-04T07:31:50;97716.50;;;24.18;51.51
72525;BME280;60547;48.502;8.996;2022-08-04T07:34:18;97708.44;;;24.22;51.87
72525;BME280;60547;48.502;8.996;2022-08-04T07:36:43;97711.13;;;24.39;52.17
72525;BME280;60547;48.502;8.996;2022-08-04T07:39:09;97709.69;;;24.51;51.52
72525;BME280;60547;48.502;8.996;2022-08-04T07:41:36;97708.69;;;24.67;50.83
72525;BME280;60547;48.502;8.996;2022-08-04T07:44:03;97709.84;;;24.77;50.32
72525;BME280;60547;48.502;8.996;2022-08-04T07:46:28;97710.00;;;24.85;48.88
72525;BME280;60547;48.502;8.996;2022-08-04T07:48:54;97702.38;;;24.93;48.30
72525;BME280;60547;48.502;8.996;2022-08-04T07:51:20;97701.16;;;25.07;48.21
72525;BME280;60547;48.502;8.996;2022-08-04T07:53:47;97699.69;;;25.20;48.45
72525;BME280;60547;48.502;8.996;2022-08-04T07:56:14;97709.59;;;25.32;48.73
72525;BME280;60547;48.502;8.996;2022-08-04T07:58:40;97698.34;;;25.39;47.24
72525;BME280;60547;48.502;8.996;2022-08-04T08:01:07;97697.16;;;25.48;46.85
72525;BME280;60547;48.502;8.996;2022-08-04T08:03:34;97691.59;;;25.56;45.37
72525;BME280;60547;48.502;8.996;2022-08-04T08:06:00;97686.72;;;25.69;45.36
72525;BME280;60547;48.502;8.996;2022-08-04T08:08:25;97681.00;;;25.69;44.85
72525;BME280;60547;48.502;8.996;2022-08-04T08:10:51;97676.75;;;25.76;45.58
72525;BME280;60547;48.502;8.996;2022-08-04T08:13:17;97679.41;;;26.00;45.68
72525;BME280;60547;48.502;8.996;2022-08-04T08:15:44;97677.09;;;26.12;45.05
72525;BME280;60547;48.502;8.996;2022-08-04T08:18:11;97681.06;;;26.22;44.58
72525;BME280;60547;48.502;8.996;2022-08-04T08:20:36;97676.97;;;26.31;45.52
72525;BME280;60547;48.502;8.996;2022-08-04T08:23:02;97679.84;;;26.44;43.42
72525;BME280;60547;48.502;8.996;2022-08-04T08:25:32;97674.13;;;26.57;43.96
72525;BME280;60547;48.502;8.996;2022-08-04T08:27:58;97674.09;;;26.70;43.86
72525;BME280;60547;48.502;8.996;2022-08-04T08:30:24;97675.72;;;26.79;44.53
72525;BME280;60547;48.502;8.996;2022-08-04T08:32:50;97671.41;;;26.86;44.13
72525;BME280;60547;48.502;8.996;2022-08-04T08:35:16;97674.69;;;26.90;43.76
72525;BME280;60547;48.502;8.996;2022-08-04T08:37:54;97665.91;;;27.01;43.74
72525;BME280;60547;48.502;8.996;2022-08-04T08:40:29;97666.69;;;27.22;42.39
72525;BME280;60547;48.502;8.996;2022-08-04T08:57:26;97668.59;;;28.11;40.82
72525;BME280;60547;48.502;8.996;2022-08-04T09:00:40;97664.38;;;28.12;40.67
72525;BME280;60547;48.502;8.996;2022-08-04T09:11:25;97661.13;;;28.80;40.69
72525;BME280;60547;48.502;8.996;2022-08-04T09:13:57;97669.63;;;29.08;39.52
72525;BME280;60547;48.502;8.996;2022-08-04T09:16:37;97658.75;;;29.14;39.16
72525;BME280;60547;48.502;8.996;2022-08-04T09:19:26;97661.88;;;29.47;37.58
72525;BME280;60547;48.502;8.996;2022-08-04T09:22:03;97658.06;;;29.67;36.94
72525;BME280;60547;48.502;8.996;2022-08-04T09:25:08;97666.47;;;29.80;37.57
72525;BME280;60547;48.502;8.996;2022-08-04T09:27:51;97663.78;;;29.98;36.90
72525;BME280;60547;48.502;8.996;2022-08-04T09:30:18;97653.84;;;30.14;35.32
72525;BME280;60547;48.502;8.996;2022-08-04T09:33:14;97656.50;;;30.19;34.58
72525;BME280;60547;48.502;8.996;2022-08-04T09:35:58;97653.06;;;30.21;35.31
72525;BME280;60547;48.502;8.996;2022-08-04T09:41:25;97645.69;;;30.58;36.51
72525;BME280;60547;48.502;8.996;2022-08-04T09:44:00;97652.38;;;31.01;35.25
72525;BME280;60547;48.502;8.996;2022-08-04T09:46:39;97641.00;;;31.10;34.26
72525;BME280;60547;48.502;8.996;2022-08-04T09:49:13;97635.66;;;31.39;34.66
72525;BME280;60547;48.502;8.996;2022-08-04T09:51:54;97642.28;;;31.49;32.58
72525;BME280;60547;48.502;8.996;2022-08-04T10:00:00;97631.22;;;31.71;29.47
72525;BME280;60547;48.502;8.996;2022-08-04T10:02:33;97627.34;;;31.93;30.11
72525;BME280;60547;48.502;8.996;2022-08-04T10:05:01;97623.72;;;31.93;29.72
72525;BME280;60547;48.502;8.996;2022-08-04T10:07:43;97620.66;;;31.91;28.46
72525;BME280;60547;48.502;8.996;2022-08-04T10:13:31;97619.44;;;32.36;28.03
72525;BME280;60547;48.502;8.996;2022-08-04T10:16:04;97604.56;;;32.57;27.39
72525;BME280;60547;48.502;8.996;2022-08-04T10:18:48;97608.78;;;32.90;25.74
72525;BME280;60547;48.502;8.996;2022-08-04T10:21:58;97609.19;;;33.14;25.11
72525;BME280;60547;48.502;8.996;2022-08-04T10:24:41;97594.88;;;33.33;24.68
72525;BME280;60547;48.502;8.996;2022-08-04T10:27:19;97602.41;;;33.55;25.42
72525;BME280;60547;48.502;8.996;2022-08-04T10:29:46;97597.84;;;33.52;23.67
72525;BME280;60547;48.502;8.996;2022-08-04T10:32:33;97591.41;;;33.81;25.38
72525;BME280;60547;48.502;8.996;2022-08-04T10:35:18;97592.66;;;34.07;25.42
72525;BME280;60547;48.502;8.996;2022-08-04T10:40:20;97575.78;;;34.22;23.51
72525;BME280;60547;48.502;8.996;2022-08-04T10:48:56;97581.25;;;34.66;22.46
72525;BME280;60547;48.502;8.996;2022-08-04T10:51:34;97583.06;;;34.81;23.60
72525;BME280;60547;48.502;8.996;2022-08-04T10:54:31;97582.13;;;34.88;22.98
72525;BME280;60547;48.502;8.996;2022-08-04T10:57:07;97577.59;;;34.85;22.98
72525;BME280;60547;48.502;8.996;2022-08-04T11:04:46;97584.28;;;35.28;23.34
72525;BME280;60547;48.502;8.996;2022-08-04T11:07:12;97586.88;;;35.65;22.37
72525;BME280;60547;48.502;8.996;2022-08-04T11:09:42;97574.47;;;35.74;22.40
72525;BME280;60547;48.502;8.996;2022-08-04T11:12:13;97579.00;;;35.87;23.40
72525;BME280;60547;48.502;8.996;2022-08-04T11:14:49;97583.59;;;35.80;22.23
72525;BME280;60547;48.502;8.996;2022-08-04T11:17:23;97571.78;;;35.67;21.83
72525;BME280;60547;48.502;8.996;2022-08-04T11:20:01;97571.28;;;35.70;22.33
72525;BME280;60547;48.502;8.996;2022-08-04T11:22:28;97571.25;;;36.01;21.30
72525;BME280;60547;48.502;8.996;2022-08-04T11:25:19;97568.44;;;36.34;22.86
72525;BME280;60547;48.502;8.996;2022-08-04T11:28:10;97570.47;;;36.43;21.40
72525;BME280;60547;48.502;8.996;2022-08-04T11:30:47;97566.78;;;36.64;21.41
72525;BME280;60547;48.502;8.996;2022-08-04T11:38:36;97565.28;;;36.75;22.04
72525;BME280;60547;48.502;8.996;2022-08-04T11:41:06;97558.31;;;37.01;21.60
72525;BME280;60547;48.502;8.996;2022-08-04T11:43:55;97558.81;;;36.98;19.87
72525;BME280;60547;48.502;8.996;2022-08-04T11:46:36;97553.09;;;36.43;19.85
72525;BME280;60547;48.502;8.996;2022-08-04T11:49:10;97544.41;;;37.00;20.19
72525;BME280;60547;48.502;8.996;2022-08-04T11:51:41;97547.06;;;37.07;19.24
72525;BME280;60547;48.502;8.996;2022-08-04T11:54:09;97540.66;;;37.20;19.88
72525;BME280;60547;48.502;8.996;2022-08-04T11:56:36;97543.44;;;37.18;18.99
72525;BME280;60547;48.502;8.996;2022-08-04T11:59:02;97546.09;;;37.38;20.33
72525;BME280;60547;48.502;8.996;2022-08-04T12:07:05;97547.63;;;37.39;19.97
72525;BME280;60547;48.502;8.996;2022-08-04T12:09:57;97545.84;;;37.57;19.81
72525;BME280;60547;48.502;8.996;2022-08-04T12:12:33;97540.78;;;37.69;19.51
72525;BME280;60547;48.502;8.996;2022-08-04T12:17:47;97540.41;;;37.63;19.50
72525;BME280;60547;48.502;8.996;2022-08-04T12:20:18;97531.13;;;38.02;19.68
72525;BME280;60547;48.502;8.996;2022-08-04T12:22:50;97536.81;;;38.00;20.53
72525;BME280;60547;48.502;8.996;2022-08-04T12:25:23;97531.47;;;38.20;19.65
72525;BME280;60547;48.502;8.996;2022-08-04T12:28:04;97540.88;;;37.95;19.19
72525;BME280;60547;48.502;8.996;2022-08-04T12:30:33;97529.91;;;37.00;19.76
72525;BME280;60547;48.502;8.996;2022-08-04T12:33:13;97529.63;;;36.39;20.39
72525;BME280;60547;48.502;8.996;2022-08-04T12:35:54;97516.34;;;36.69;20.57
72525;BME280;60547;48.502;8.996;2022-08-04T12:38:25;97519.09;;;36.01;20.46
72525;BME280;60547;48.502;8.996;2022-08-04T12:40:54;97519.34;;;36.27;20.03
72525;BME280;60547;48.502;8.996;2022-08-04T12:43:42;97513.13;;;37.10;20.27
72525;BME280;60547;48.502;8.996;2022-08-04T12:46:10;97506.69;;;37.58;18.69
72525;BME280;60547;48.502;8.996;2022-08-04T12:48:38;97505.81;;;37.09;19.84
72525;BME280;60547;48.502;8.996;2022-08-04T12:51:07;97504.22;;;36.61;20.59
72525;BME280;60547;48.502;8.996;2022-08-04T12:53:39;97506.97;;;37.27;20.59
72525;BME280;60547;48.502;8.996;2022-08-04T12:56:07;97510.28;;;37.94;20.85
72525;BME280;60547;48.502;8.996;2022-08-04T12:58:41;97510.47;;;38.09;18.95
72525;BME280;60547;48.502;8.996;2022-08-04T13:01:21;97500.63;;;37.54;19.47
72525;BME280;60547;48.502;8.996;2022-08-04T13:04:02;97500.94;;;38.32;19.88
72525;BME280;60547;48.502;8.996;2022-08-04T13:06:33;97495.28;;;38.73;18.82
72525;BME280;60547;48.502;8.996;2022-08-04T13:09:08;97501.22;;;38.50;18.55
72525;BME280;60547;48.502;8.996;2022-08-04T13:11:47;97505.88;;;38.30;18.88
72525;BME280;60547;48.502;8.996;2022-08-04T13:14:14;97496.88;;;38.63;18.21
72525;BME280;60547;48.502;8.996;2022-08-04T13:16:41;97499.00;;;38.37;18.07
72525;BME280;60547;48.502;8.996;2022-08-04T13:19:07;97491.59;;;37.85;18.56
72525;BME280;60547;48.502;8.996;2022-08-04T13:21:34;97487.66;;;37.32;19.76
72525;BME280;60547;48.502;8.996;2022-08-04T13:24:14;97485.31;;;37.77;19.14
72525;BME280;60547;48.502;8.996;2022-08-04T13:26:55;97476.59;;;36.60;19.69
72525;BME280;60547;48.502;8.996;2022-08-04T13:29:24;97468.25;;;36.54;19.02
72525;BME280;60547;48.502;8.996;2022-08-04T13:31:51;97470.81;;;36.72;20.77
72525;BME280;60547;48.502;8.996;2022-08-04T13:34:18;97466.25;;;36.24;22.12
72525;BME280;60547;48.502;8.996;2022-08-04T13:36:45;97460.00;;;36.28;19.88
72525;BME280;60547;48.502;8.996;2022-08-04T13:39:17;97465.72;;;36.49;20.18
72525;BME280;60547;48.502;8.996;2022-08-04T13:41:54;97456.25;;;36.37;20.51
72525;BME280;60547;48.502;8.996;2022-08-04T13:44:30;97468.44;;;36.92;19.25
72525;BME280;60547;48.502;8.996;2022-08-04T13:46:58;97461.38;;;37.18;18.26
72525;BME280;60547;48.502;8.996;2022-08-04T13:49:25;97456.25;;;37.65;18.75
72525;BME280;60547;48.502;8.996;2022-08-04T13:51:54;97457.44;;;37.97;17.59
72525;BME280;60547;48.502;8.996;2022-08-04T13:54:20;97460.94;;;38.07;17.94
72525;BME280;60547;48.502;8.996;2022-08-04T13:56:49;97444.75;;;38.16;17.70
72525;BME280;60547;48.502;8.996;2022-08-04T13:59:16;97450.50;;;38.28;16.91
72525;BME280;60547;48.502;8.996;2022-08-04T14:01:44;97448.88;;;38.25;17.53
72525;BME280;60547;48.502;8.996;2022-08-04T14:04:21;97447.44;;;38.51;16.66
72525;BME280;60547;48.502;8.996;2022-08-04T14:09:20;97428.44;;;37.86;17.97
72525;BME280;60547;48.502;8.996;2022-08-04T14:11:49;97441.28;;;38.45;17.90
72525;BME280;60547;48.502;8.996;2022-08-04T14:14:21;97442.75;;;38.32;16.96
72525;BME280;60547;48.502;8.996;2022-08-04T14:27:20;97421.91;;;37.62;17.96
72525;BME280;60547;48.502;8.996;2022-08-04T14:29:45;97424.41;;;37.79;17.91
72525;BME280;60547;48.502;8.996;2022-08-04T14:32:11;97422.34;;;37.93;17.54
72525;BME280;60547;48.502;8.996;2022-08-04T14:34:38;97424.41;;;38.04;17.68
72525;BME280;60547;48.502;8.996;2022-08-04T14:37:09;97420.00;;;38.03;19.03
72525;BME280;60547;48.502;8.996;2022-08-04T14:42:04;97411.16;;;37.27;18.28
72525;BME280;60547;48.502;8.996;2022-08-04T14:44:29;97412.41;;;37.12;18.79
72525;BME280;60547;48.502;8.996;2022-08-04T14:46:56;97422.25;;;37.19;18.44
72525;BME280;60547;48.502;8.996;2022-08-04T14:49:23;97419.56;;;37.46;17.76
72525;BME280;60547;48.502;8.996;2022-08-04T14:51:53;97410.81;;;37.70;17.57
72525;BME280;60547;48.502;8.996;2022-08-04T14:54:29;97406.75;;;37.75;18.51
72525;BME280;60547;48.502;8.996;2022-08-04T14:57:04;97408.38;;;37.78;18.09
72525;BME280;60547;48.502;8.996;2022-08-04T14:59:48;97403.25;;;37.90;17.96
72525;BME280;60547;48.502;8.996;2022-08-04T15:02:15;97411.06;;;37.99;17.86
72525;BME280;60547;48.502;8.996;2022-08-04T15:04:42;97409.00;;;37.76;18.54
72525;BME280;60547;48.502;8.996;2022-08-04T15:07:09;97411.41;;;38.05;17.86
72525;BME280;60547;48.502;8.996;2022-08-04T15:09:35;97403.50;;;37.94;17.62
72525;BME280;60547;48.502;8.996;2022-08-04T15:12:02;97408.38;;;38.03;17.70
72525;BME280;60547;48.502;8.996;2022-08-04T15:14:29;97406.97;;;37.79;18.00
72525;BME280;60547;48.502;8.996;2022-08-04T15:16:56;97407.72;;;37.19;18.91
72525;BME280;60547;48.502;8.996;2022-08-04T15:19:22;97408.88;;;37.02;18.73
72525;BME280;60547;48.502;8.996;2022-08-04T15:21:48;97412.00;;;36.48;19.46
72525;BME280;60547;48.502;8.996;2022-08-04T15:24:13;97405.09;;;36.53;18.65
72525;BME280;60547;48.502;8.996;2022-08-04T15:26:47;97409.41;;;36.87;18.90
72525;BME280;60547;48.502;8.996;2022-08-04T15:29:19;97408.41;;;36.82;19.78
72525;BME280;60547;48.502;8.996;2022-08-04T15:31:47;97406.47;;;37.10;20.85
72525;BME280;60547;48.502;8.996;2022-08-04T15:34:13;97405.59;;;37.08;20.74
72525;BME280;60547;48.502;8.996;2022-08-04T15:36:53;97404.19;;;37.20;20.20
72525;BME280;60547;48.502;8.996;2022-08-04T15:39:57;97406.13;;;37.04;19.61
72525;BME280;60547;48.502;8.996;2022-08-04T15:42:29;97414.41;;;37.22;21.38
72525;BME280;60547;48.502;8.996;2022-08-04T15:45:11;97404.81;;;37.19;20.29
72525;BME280;60547;48.502;8.996;2022-08-04T15:47:42;97409.91;;;36.95;20.71
72525;BME280;60547;48.502;8.996;2022-08-04T15:50:09;97408.53;;;36.96;20.26
72525;BME280;60547;48.502;8.996;2022-08-04T15:58:13;97404.44;;;36.54;21.25
72525;BME280;60547;48.502;8.996;2022-08-04T16:03:50;97398.78;;;36.56;21.25
72525;BME280;60547;48.502;8.996;2022-08-04T16:14:07;97383.91;;;36.50;20.59
72525;BME280;60547;48.502;8.996;2022-08-04T16:19:09;97381.56;;;36.25;21.46
72525;BME280;60547;48.502;8.996;2022-08-04T16:21:56;97387.09;;;36.21;21.66
72525;BME280;60547;48.502;8.996;2022-08-04T16:24:38;97376.91;;;36.20;21.02
72525;BME280;60547;48.502;8.996;2022-08-04T16:27:08;97379.81;;;36.20;20.88
72525;BME280;60547;48.502;8.996;2022-08-04T16:29:39;97378.91;;;36.18;20.67
72525;BME280;60547;48.502;8.996;2022-08-04T16:37:02;97381.75;;;35.95;22.00
72525;BME280;60547;48.502;8.996;2022-08-04T16:39:27;97372.69;;;36.00;21.25
72525;BME280;60547;48.502;8.996;2022-08-04T16:41:53;97378.69;;;35.81;22.16
72525;BME280;60547;48.502;8.996;2022-08-04T16:44:45;97381.72;;;35.61;22.46
72525;BME280;60547;48.502;8.996;2022-08-04T16:50:11;97378.97;;;35.64;21.50
72525;BME280;60547;48.502;8.996;2022-08-04T16:52:41;97371.53;;;35.60;21.87
72525;BME280;60547;48.502;8.996;2022-08-04T16:55:08;97367.47;;;35.54;21.50
72525;BME280;60547;48.502;8.996;2022-08-04T16:57:33;97369.63;;;35.53;21.59
72525;BME280;60547;48.502;8.996;2022-08-04T16:59:59;97364.31;;;35.28;23.08
72525;BME280;60547;48.502;8.996;2022-08-04T17:02:25;97365.50;;;35.35;22.10
72525;BME280;60547;48.502;8.996;2022-08-04T17:04:50;97364.78;;;35.25;22.43
72525;BME280;60547;48.502;8.996;2022-08-04T17:07:16;97359.00;;;35.25;22.83
72525;BME280;60547;48.502;8.996;2022-08-04T17:09:49;97360.66;;;35.28;22.03
72525;BME280;60547;48.502;8.996;2022-08-04T17:12:14;97360.09;;;34.98;22.47
72525;BME280;60547;48.502;8.996;2022-08-04T17:14:40;97368.03;;;34.98;22.94
72525;BME280;60547;48.502;8.996;2022-08-04T17:17:05;97369.25;;;34.95;23.25
72525;BME280;60547;48.502;8.996;2022-08-04T17:19:31;97365.19;;;34.88;22.96